首页
METAR-TAF:

METAR-TAF

机场 :

本-古里安国际机场

特拉维夫 / 本·古里安, 以色列

纬度: 32-00N, 经度: 034-54E, 海拔: 40米

当前天气观测

该预报发布于34分钟前的17:20 UTC
风速11节,风向西转西北
温度 16°C
湿度 88%
气压 1020 hPa
能见度10公里或以上
少量云层高于2000英尺
多云层高于3000英尺

METAR: LLBG 121720Z 29011KT 9999 FEW020 BKN030 16/14 Q1020 NOSIG RMK RERA

时间: 19:54 (17:54 UTC)

预报

该预报发布于51分钟前的17:03 UTC
预报有效从12日的 18点(UTC)到 13日的 18点(UTC)
风速10节,风向西
能见度10公里或以上
散云层高于2500英尺
短暂存在
从 12日的 18点(UTC)到 12日的 20点(UTC)
风速15节,风向西,有时为25节阵风
能見度: 6000
多云层高于2000英尺
成为
从 12日的 20点(UTC)到 12日的 22点(UTC)
风速8节,风向西转西北
成为
从 13日的 07点(UTC)到 13日的 09点(UTC)
风速12节,风向北转西北
能见度10公里或以上
少量云层高于3500英尺
成为
从 13日的 14点(UTC)到 13日的 16点(UTC)
风速8节,风向东转东南

TAF: LLBG 121703Z 1218/1318 27010KT 9999 SCT025 TEMPO 1218/1220 28015G25KT 6000 RA BKN020 BECMG 1220/1222 30008KT BECMG 1307/1309 33012KT 9999 FEW035 BECMG 1314/1316 12008KT TX18/1312Z TN14/1304Z

超过4000个机场的气象观测和天气预报(METAR&TAF报告)。

可查询的气象台以黄色和红色小点在地图上表示。

将鼠标移到小点上方,可查看气象台名称。

然后点击查看天气观测和预报。

如需切换地图:点击带黑十字的绿色按钮放大地图;点击带横线的绿色按钮缩小地图;或者点击绿色箭头查看邻近地区的地图。


METAR-TAF: